Time;durP1;ratioP1;P1;durP2;ratioP2;P2;SDS_P1;SDS_P2;PMS_P1;PMS_P2;Temp;Humidity;BMP_temperature;BMP_pressure;BME280_temperature;BME280_humidity;BME280_pressure;Samples;Min_cycle;Max_cycle;Signal;HPM_P1;HPM_P2
2023/08/18 00:01:24;;;;;;;0.40;0.40;;;18.30;99.90;;;;;;5033634;28;20044;-67
2023/08/18 00:03:50;;;;;;;1.38;1.08;;;18.30;99.90;;;;;;5030646;28;20454;-69
2023/08/18 00:06:16;;;;;;;0.37;0.37;;;18.30;99.90;;;;;;5047831;28;20034;-67
2023/08/18 00:08:42;;;;;;;0.73;0.73;;;18.20;99.90;;;;;;5028406;28;20026;-80
2023/08/18 00:11:08;;;;;;;0.30;0.30;;;18.20;99.90;;;;;;5026035;28;20034;-68
2023/08/18 00:13:34;;;;;;;;;;;18.20;99.90;;;;;;5031689;28;20033;-69
2023/08/18 00:16:00;;;;;;;0.47;0.35;;;18.20;99.90;;;;;;5030087;28;19962;-68
2023/08/18 00:18:26;;;;;;;0.22;0.22;;;18.10;99.90;;;;;;5034079;28;20424;-68
2023/08/18 00:20:52;;;;;;;0.80;0.80;;;18.10;99.90;;;;;;5034101;28;20087;-79
2023/08/18 00:23:18;;;;;;;0.40;0.37;;;18.10;99.90;;;;;;5019063;28;20315;-68
2023/08/18 00:25:44;;;;;;;0.57;0.57;;;18.10;99.90;;;;;;5035938;28;20053;-70
2023/08/18 00:28:09;;;;;;;1.10;0.97;;;18.10;99.90;;;;;;5047618;28;20029;-68
2023/08/18 00:30:35;;;;;;;0.37;0.37;;;18.10;99.90;;;;;;5036825;28;20039;-68
2023/08/18 00:33:01;;;;;;;0.63;0.50;;;18.00;99.90;;;;;;5034318;28;20273;-68
2023/08/18 00:35:27;;;;;;;0.93;0.37;;;18.00;99.90;;;;;;5046345;28;20030;-68
2023/08/18 00:37:53;;;;;;;0.20;0.20;;;18.00;99.90;;;;;;5019924;28;20045;-75
2023/08/18 00:40:18;;;;;;;0.10;0.10;;;17.90;99.90;;;;;;5041922;28;20063;-68
2023/08/18 00:42:44;;;;;;;0.83;0.83;;;17.90;99.90;;;;;;5031005;28;20279;-69
2023/08/18 00:45:10;;;;;;;0.87;0.87;;;17.90;99.90;;;;;;5033063;28;20056;-69
2023/08/18 00:47:37;;;;;;;0.67;0.67;;;18.00;99.90;;;;;;5041025;28;20104;-68
2023/08/18 00:50:04;;;;;;;1.20;1.17;;;17.90;99.90;;;;;;5039078;28;20083;-68
2023/08/18 00:52:30;;;;;;;;;;;17.90;99.90;;;;;;5035189;28;20026;-68
2023/08/18 00:54:56;;;;;;;0.52;0.52;;;17.90;99.90;;;;;;5055466;28;19909;-68
2023/08/18 00:57:22;;;;;;;0.80;0.80;;;17.90;99.90;;;;;;5040383;28;20068;-69
2023/08/18 00:59:49;;;;;;;0.50;0.50;;;17.80;99.90;;;;;;5034457;28;20057;-68
2023/08/18 01:02:19;;;;;;;0.50;0.50;;;17.90;99.90;;;;;;5035089;28;20488;-68
2023/08/18 01:04:45;;;;;;;0.80;0.80;;;17.80;99.90;;;;;;5040555;28;20037;-68
2023/08/18 01:07:11;;;;;;;1.65;1.10;;;17.80;99.90;;;;;;5040638;28;20416;-68
2023/08/18 01:09:37;;;;;;;0.43;0.43;;;17.80;99.90;;;;;;5035023;28;20045;-68
2023/08/18 01:12:21;;;;;;;0.50;0.50;;;17.80;99.90;;;;;;5029429;28;20033;-78
2023/08/18 01:15:12;;;;;;;1.48;1.17;;;17.80;99.90;;;;;;5028121;28;20083;-68
2023/08/18 01:17:54;;;;;;;0.50;0.50;;;17.70;99.90;;;;;;5037355;28;20064;-80
2023/08/18 01:20:21;;;;;;;0.60;0.60;;;17.70;99.90;;;;;;5029663;28;20029;-67
2023/08/18 01:22:55;;;;;;;0.80;0.73;;;17.70;99.90;;;;;;5040431;28;20033;-69
2023/08/18 01:25:21;;;;;;;0.43;0.43;;;17.70;99.90;;;;;;5040026;28;20037;-68
2023/08/18 01:27:47;;;;;;;0.87;0.50;;;17.70;99.90;;;;;;5040979;28;20025;-69
2023/08/18 01:30:14;;;;;;;1.48;1.33;;;17.70;99.90;;;;;;5035827;28;20305;-69
2023/08/18 01:32:50;;;;;;;1.30;1.25;;;17.60;99.90;;;;;;5039064;28;20029;-68
2023/08/18 01:35:18;;;;;;;0.13;0.13;;;17.60;99.90;;;;;;5034114;28;20040;-68
2023/08/18 01:37:46;;;;;;;4.25;2.35;;;17.50;99.90;;;;;;5040175;28;20045;-69
2023/08/18 01:40:14;;;;;;;0.40;0.40;;;17.50;99.90;;;;;;5054770;28;20535;-68
2023/08/18 01:42:40;;;;;;;0.98;0.98;;;17.50;99.90;;;;;;5038952;28;20032;-68
2023/08/18 01:45:08;;;;;;;0.77;0.77;;;17.40;99.90;;;;;;5039667;28;20033;-73
2023/08/18 01:47:35;;;;;;;2.33;0.75;;;17.40;99.90;;;;;;5038889;28;20693;-68
2023/08/18 01:50:01;;;;;;;4.87;1.50;;;17.40;99.90;;;;;;5028880;28;20035;-68
2023/08/18 01:52:26;;;;;;;1.60;1.17;;;17.40;99.90;;;;;;5021875;28;20093;-68
2023/08/18 01:54:52;;;;;;;0.87;0.87;;;17.30;99.90;;;;;;5038877;28;20038;-68
2023/08/18 01:57:18;;;;;;;0.70;0.70;;;17.30;99.90;;;;;;5036236;28;20049;-68
2023/08/18 01:59:44;;;;;;;1.70;1.23;;;17.30;99.90;;;;;;5034232;28;20043;-68
2023/08/18 02:02:09;;;;;;;1.30;1.23;;;17.30;99.90;;;;;;5037041;28;20031;-69
2023/08/18 02:04:35;;;;;;;0.50;0.50;;;17.30;99.90;;;;;;5023061;28;20329;-68
2023/08/18 02:07:01;;;;;;;1.27;1.17;;;17.20;99.90;;;;;;5037137;28;20022;-68
2023/08/18 02:09:26;;;;;;;0.90;0.90;;;17.20;99.90;;;;;;5019943;28;20030;-68
2023/08/18 02:11:52;;;;;;;1.23;1.13;;;17.20;99.90;;;;;;5019554;28;20029;-81
2023/08/18 02:14:18;;;;;;;1.73;1.13;;;17.20;99.90;;;;;;5027113;28;20040;-68
2023/08/18 02:16:43;;;;;;;1.93;1.50;;;17.20;99.90;;;;;;5029704;28;20416;-68
2023/08/18 02:19:09;;;;;;;0.50;0.50;;;17.20;99.90;;;;;;5030861;28;20116;-68
2023/08/18 02:21:35;;;;;;;1.63;1.53;;;17.20;99.90;;;;;;5030357;28;20320;-68
2023/08/18 02:24:00;;;;;;;0.50;0.50;;;17.10;99.90;;;;;;5035573;28;20412;-68
2023/08/18 02:26:26;;;;;;;3.10;1.60;;;17.10;99.90;;;;;;5040621;28;20028;-68
2023/08/18 02:28:52;;;;;;;0.83;0.83;;;17.10;99.90;;;;;;5033913;28;20025;-68
2023/08/18 02:31:18;;;;;;;0.50;0.50;;;17.10;99.90;;;;;;5034976;28;20095;-68
2023/08/18 02:33:43;;;;;;;0.40;0.40;;;17.10;99.90;;;;;;5043761;28;20106;-68
2023/08/18 02:36:09;;;;;;;3.40;1.93;;;17.00;99.90;;;;;;5026899;28;20075;-68
2023/08/18 02:38:35;;;;;;;0.23;0.23;;;17.00;99.90;;;;;;5022838;28;20030;-69
2023/08/18 02:41:01;;;;;;;1.10;0.88;;;17.00;99.90;;;;;;5027860;28;20108;-68
2023/08/18 02:43:27;;;;;;;0.60;0.57;;;16.90;99.90;;;;;;5031933;28;20128;-68
2023/08/18 02:45:56;;;;;;;2.33;1.57;;;17.00;99.90;;;;;;5033444;28;20332;-69
2023/08/18 02:48:24;;;;;;;1.75;0.80;;;16.90;99.90;;;;;;5025961;28;20021;-68
2023/08/18 02:50:50;;;;;;;1.98;0.95;;;16.90;99.90;;;;;;5027843;28;20038;-68
2023/08/18 02:53:16;;;;;;;0.40;0.40;;;16.90;99.90;;;;;;5024110;28;20344;-68
2023/08/18 02:55:42;;;;;;;0.70;0.70;;;16.90;99.90;;;;;;5025889;28;20030;-78
2023/08/18 02:58:08;;;;;;;0.93;0.70;;;16.90;99.90;;;;;;5025794;28;20076;-67
2023/08/18 03:00:37;;;;;;;0.57;0.37;;;16.80;99.90;;;;;;5027192;28;20029;-68
2023/08/18 03:03:03;;;;;;;1.02;0.80;;;16.80;99.90;;;;;;5028890;28;20030;-67
2023/08/18 03:05:28;;;;;;;0.80;0.80;;;16.90;99.90;;;;;;5040926;28;20294;-67
2023/08/18 03:07:54;;;;;;;0.83;0.83;;;16.80;99.90;;;;;;5046852;28;20044;-68
2023/08/18 03:10:20;;;;;;;1.00;0.83;;;16.80;99.90;;;;;;5031516;28;20025;-68
2023/08/18 03:12:45;;;;;;;1.97;1.73;;;16.80;99.90;;;;;;5034465;28;20101;-68
2023/08/18 03:15:11;;;;;;;1.50;0.97;;;16.80;99.90;;;;;;5037862;28;20021;-69
2023/08/18 03:17:37;;;;;;;4.57;1.10;;;16.80;99.90;;;;;;5037847;28;20309;-68
2023/08/18 03:20:04;;;;;;;4.97;1.53;;;16.80;99.90;;;;;;5032069;28;20033;-68
2023/08/18 03:22:32;;;;;;;0.63;0.60;;;16.80;99.90;;;;;;5044208;28;20316;-68
2023/08/18 03:24:57;;;;;;;0.80;0.80;;;16.80;99.90;;;;;;5034626;28;20092;-68
2023/08/18 03:27:23;;;;;;;0.53;0.53;;;16.80;99.90;;;;;;5027384;28;20026;-68
2023/08/18 03:29:49;;;;;;;0.83;0.83;;;16.80;99.90;;;;;;5042018;28;20417;-68
2023/08/18 03:32:15;;;;;;;0.50;0.50;;;16.80;99.90;;;;;;5033872;28;20061;-68
2023/08/18 03:34:40;;;;;;;2.80;1.30;;;16.80;99.90;;;;;;5028670;28;20025;-68
2023/08/18 03:37:07;;;;;;;1.50;1.40;;;16.80;99.90;;;;;;5035497;28;20375;-68
2023/08/18 03:39:32;;;;;;;4.65;1.95;;;16.80;99.90;;;;;;5021756;28;20121;-68
2023/08/18 03:41:58;;;;;;;3.00;0.60;;;16.80;99.90;;;;;;5034630;28;20113;-68
2023/08/18 03:44:23;;;;;;;1.27;1.10;;;16.80;99.90;;;;;;5033606;28;20333;-67
2023/08/18 03:46:49;;;;;;;0.20;0.20;;;16.80;99.90;;;;;;5035538;28;20135;-79
2023/08/18 03:49:15;;;;;;;2.90;1.90;;;16.80;99.90;;;;;;5025401;28;20164;-69
2023/08/18 03:51:40;;;;;;;1.13;0.47;;;16.80;99.90;;;;;;5031334;28;20029;-79
2023/08/18 03:54:06;;;;;;;0.97;0.93;;;16.80;99.90;;;;;;5026935;28;20405;-68
2023/08/18 03:56:32;;;;;;;1.10;0.90;;;16.80;99.90;;;;;;5033150;28;20290;-78
2023/08/18 03:58:58;;;;;;;1.17;1.17;;;16.80;99.90;;;;;;5035015;28;20400;-68
2023/08/18 04:01:23;;;;;;;0.70;0.70;;;16.80;99.90;;;;;;5020958;28;20324;-68
2023/08/18 04:03:49;;;;;;;0.83;0.83;;;16.80;99.90;;;;;;5033234;28;20083;-69
2023/08/18 04:06:16;;;;;;;0.47;0.47;;;16.70;99.90;;;;;;5046763;28;20037;-69
2023/08/18 04:08:43;;;;;;;1.30;1.17;;;16.80;99.90;;;;;;5033278;28;20116;-69
2023/08/18 04:11:13;;;;;;;1.05;1.05;;;16.70;99.90;;;;;;5033843;28;20033;-68
2023/08/18 04:13:39;;;;;;;2.75;1.65;;;16.70;99.90;;;;;;5028545;28;20072;-69
2023/08/18 04:16:05;;;;;;;0.75;0.75;;;16.70;99.90;;;;;;5026552;28;20087;-68
2023/08/18 04:18:30;;;;;;;1.63;1.03;;;16.80;99.90;;;;;;5025231;28;20412;-68
2023/08/18 04:20:56;;;;;;;1.27;1.17;;;16.80;99.90;;;;;;5033317;28;20037;-78
2023/08/18 04:23:22;;;;;;;0.43;0.43;;;16.70;99.90;;;;;;5034927;28;20025;-68
2023/08/18 04:25:48;;;;;;;0.80;0.80;;;16.70;99.90;;;;;;5034539;28;20413;-68
2023/08/18 04:28:14;;;;;;;3.33;2.27;;;16.70;99.90;;;;;;5027543;28;20046;-68
2023/08/18 04:30:39;;;;;;;0.40;0.40;;;16.80;99.90;;;;;;5044212;28;20026;-68
2023/08/18 04:33:06;;;;;;;0.90;0.77;;;16.70;99.90;;;;;;5049940;28;20036;-68
2023/08/18 04:35:32;;;;;;;3.20;0.98;;;16.70;99.90;;;;;;5033915;28;20051;-68
2023/08/18 04:37:57;;;;;;;0.53;0.53;;;16.70;99.90;;;;;;5029545;28;20033;-68
2023/08/18 04:40:23;;;;;;;0.30;0.30;;;16.80;99.90;;;;;;5014533;28;20057;-69
2023/08/18 04:42:49;;;;;;;0.37;0.37;;;16.80;99.90;;;;;;5029217;28;20483;-68
2023/08/18 04:45:15;;;;;;;1.02;1.02;;;16.80;99.90;;;;;;5029459;28;20054;-68
2023/08/18 04:47:40;;;;;;;0.70;0.70;;;16.80;99.90;;;;;;5027094;28;20028;-68
2023/08/18 04:50:07;;;;;;;0.63;0.63;;;16.80;99.90;;;;;;5033892;28;20021;-68
2023/08/18 04:52:32;;;;;;;1.23;1.17;;;16.90;99.90;;;;;;5049063;28;20421;-68
2023/08/18 04:54:58;;;;;;;4.47;1.67;;;16.90;99.90;;;;;;5033357;28;20128;-69
2023/08/18 04:57:24;;;;;;;3.43;0.60;;;16.90;99.90;;;;;;5027334;28;20045;-70
2023/08/18 04:59:49;;;;;;;0.63;0.37;;;16.90;99.90;;;;;;5031876;28;20053;-69
2023/08/18 05:02:15;;;;;;;1.03;0.77;;;16.90;99.90;;;;;;5029675;28;20080;-68
2023/08/18 05:04:41;;;;;;;0.70;0.70;;;16.90;99.90;;;;;;5031693;28;20075;-68
2023/08/18 05:07:07;;;;;;;1.10;1.07;;;16.90;99.90;;;;;;5025505;28;20038;-69
2023/08/18 05:09:34;;;;;;;3.22;1.20;;;16.90;99.90;;;;;;5032562;28;20021;-69
2023/08/18 05:11:59;;;;;;;0.63;0.47;;;16.90;99.90;;;;;;5028148;28;20441;-68
2023/08/18 05:14:25;;;;;;;0.77;0.77;;;16.90;99.90;;;;;;5021510;28;20083;-69
2023/08/18 05:16:51;;;;;;;0.73;0.73;;;16.90;99.90;;;;;;5025704;28;20045;-69
2023/08/18 05:19:17;;;;;;;1.60;1.10;;;16.90;99.90;;;;;;5018273;28;20036;-69
2023/08/18 05:21:42;;;;;;;1.30;1.23;;;16.90;99.90;;;;;;5022857;28;20030;-68
2023/08/18 05:24:08;;;;;;;2.50;1.90;;;16.90;99.90;;;;;;5028369;28;20075;-68
2023/08/18 05:26:34;;;;;;;0.73;0.73;;;16.90;99.90;;;;;;5020719;28;20029;-69
2023/08/18 05:28:59;;;;;;;0.40;0.40;;;16.90;99.90;;;;;;5030064;28;20038;-69
2023/08/18 05:31:25;;;;;;;0.50;0.50;;;16.90;99.90;;;;;;5025022;28;20034;-69
2023/08/18 05:33:51;;;;;;;0.40;0.40;;;17.00;99.90;;;;;;5028134;28;20033;-69
2023/08/18 05:36:18;;;;;;;0.40;0.40;;;17.00;99.90;;;;;;5032324;28;20022;-68
2023/08/18 05:38:43;;;;;;;1.45;1.35;;;17.00;99.90;;;;;;5032691;28;20111;-68
2023/08/18 05:41:13;;;;;;;0.30;0.30;;;17.00;99.90;;;;;;5032910;28;20063;-68
2023/08/18 05:43:39;;;;;;;14.05;0.98;;;17.10;99.90;;;;;;5042807;28;20037;-68
2023/08/18 05:46:05;;;;;;;0.93;0.90;;;17.10;99.90;;;;;;5044716;28;20123;-68
2023/08/18 05:48:32;;;;;;;1.95;0.90;;;17.10;99.90;;;;;;5035402;28;20397;-79
2023/08/18 05:51:02;;;;;;;1.25;1.15;;;17.10;99.90;;;;;;5033035;28;20029;-68
2023/08/18 05:53:29;;;;;;;0.80;0.80;;;17.10;99.90;;;;;;5031019;28;20048;-68
2023/08/18 05:55:55;;;;;;;0.57;0.57;;;17.10;99.90;;;;;;5038940;28;20371;-77
2023/08/18 05:58:21;;;;;;;0.97;0.97;;;17.10;99.90;;;;;;5023702;28;20025;-68
2023/08/18 06:00:50;;;;;;;0.43;0.43;;;17.20;99.90;;;;;;5040592;28;20029;-68
2023/08/18 06:03:19;;;;;;;0.73;0.73;;;17.30;99.90;;;;;;5044611;28;20021;-68
2023/08/18 06:05:48;;;;;;;0.85;0.85;;;17.30;99.90;;;;;;5041226;28;20103;-68
2023/08/18 06:08:14;;;;;;;1.45;0.88;;;17.30;99.90;;;;;;5021526;28;20037;-68
2023/08/18 06:10:41;;;;;;;0.85;0.85;;;17.30;99.90;;;;;;5035532;28;20076;-68
2023/08/18 06:13:07;;;;;;;1.08;0.40;;;17.40;99.90;;;;;;5027736;28;20033;-69
2023/08/18 06:15:32;;;;;;;0.77;0.75;;;17.40;99.90;;;;;;5024268;28;20033;-68
2023/08/18 06:17:58;;;;;;;0.97;0.97;;;17.40;99.90;;;;;;5039139;28;20034;-69
2023/08/18 06:20:24;;;;;;;3.37;2.07;;;17.50;99.90;;;;;;5030428;28;20105;-68
2023/08/18 06:22:50;;;;;;;0.77;0.77;;;17.50;99.90;;;;;;5031446;28;20025;-69
2023/08/18 06:25:15;;;;;;;4.47;2.70;;;17.50;99.90;;;;;;5030276;28;20033;-69
2023/08/18 06:27:41;;;;;;;2.23;0.40;;;17.50;99.90;;;;;;5035032;28;20028;-68
2023/08/18 06:30:07;;;;;;;0.80;0.57;;;17.50;99.90;;;;;;5035775;28;20040;-78
2023/08/18 06:32:33;;;;;;;0.85;0.85;;;17.50;99.90;;;;;;5033260;28;20037;-68
2023/08/18 06:34:59;;;;;;;0.50;0.50;;;17.60;99.90;;;;;;5023114;28;20030;-69
2023/08/18 06:37:25;;;;;;;1.17;1.17;;;17.50;99.90;;;;;;5040029;28;20432;-68
2023/08/18 06:39:51;;;;;;;0.63;0.57;;;17.50;99.90;;;;;;5038528;28;20029;-69
2023/08/18 06:42:17;;;;;;;1.70;1.33;;;17.60;99.90;;;;;;5029114;28;20030;-69
2023/08/18 06:44:42;;;;;;;1.07;1.07;;;17.60;99.90;;;;;;5041603;28;20268;-68
2023/08/18 06:47:08;;;;;;;1.50;0.60;;;17.60;99.90;;;;;;5034113;28;20036;-69
2023/08/18 06:49:34;;;;;;;1.07;0.87;;;17.70;99.90;;;;;;5030217;28;20451;-69
2023/08/18 06:51:59;;;;;;;1.03;1.00;;;17.70;99.90;;;;;;5026384;28;20038;-68
2023/08/18 06:54:25;;;;;;;6.07;2.27;;;17.70;99.90;;;;;;5024756;28;20343;-68
2023/08/18 06:56:51;;;;;;;1.40;1.20;;;17.80;99.90;;;;;;5028414;28;20417;-78
2023/08/18 06:59:17;;;;;;;0.80;0.63;;;17.80;99.90;;;;;;5023318;28;20132;-69
2023/08/18 07:01:43;;;;;;;2.50;1.03;;;17.90;99.90;;;;;;5026562;28;20109;-68
2023/08/18 07:04:09;;;;;;;3.90;2.03;;;17.90;99.90;;;;;;5024773;28;20049;-68
2023/08/18 07:06:35;;;;;;;0.90;0.90;;;18.10;99.90;;;;;;5034368;28;20021;-69
2023/08/18 07:09:01;;;;;;;0.33;0.33;;;18.10;99.90;;;;;;5023234;28;20041;-68
2023/08/18 07:11:27;;;;;;;4.93;2.10;;;18.20;99.90;;;;;;5034967;28;20105;-68
2023/08/18 07:13:53;;;;;;;0.67;0.67;;;18.30;99.90;;;;;;5040316;28;20116;-78
2023/08/18 07:16:18;;;;;;;0.90;0.90;;;18.40;99.90;;;;;;5032607;28;20304;-68
2023/08/18 07:18:44;;;;;;;0.50;0.50;;;18.40;99.90;;;;;;5026318;28;20452;-69
2023/08/18 07:21:10;;;;;;;3.17;1.43;;;18.50;99.90;;;;;;5025667;28;20107;-69
2023/08/18 07:23:35;;;;;;;2.73;1.97;;;18.50;99.90;;;;;;5029504;28;20027;-69
2023/08/18 07:26:03;;;;;;;0.70;0.70;;;18.50;99.90;;;;;;5032753;28;20471;-68
2023/08/18 07:28:29;;;;;;;0.68;0.68;;;18.60;99.90;;;;;;5035924;28;20030;-68
2023/08/18 07:30:54;;;;;;;3.30;1.67;;;18.70;99.90;;;;;;5036687;28;20025;-69
2023/08/18 07:33:20;;;;;;;0.70;0.70;;;18.80;99.90;;;;;;5039089;28;20036;-69
2023/08/18 07:35:46;;;;;;;5.23;1.03;;;18.80;99.90;;;;;;5021737;28;20475;-69
2023/08/18 07:38:12;;;;;;;0.27;0.27;;;18.80;99.90;;;;;;5037253;28;20327;-69
2023/08/18 07:40:38;;;;;;;0.70;0.70;;;18.90;99.90;;;;;;5039045;28;20025;-78
2023/08/18 07:43:03;;;;;;;2.22;0.98;;;18.90;99.90;;;;;;5027101;28;20043;-69
2023/08/18 07:45:29;;;;;;;0.80;0.80;;;19.00;99.90;;;;;;5029401;28;20042;-69
2023/08/18 07:47:55;;;;;;;0.80;0.80;;;19.00;99.90;;;;;;5042727;28;20131;-69
2023/08/18 07:50:21;;;;;;;2.77;1.33;;;19.00;99.90;;;;;;5042449;28;20419;-69
2023/08/18 07:52:47;;;;;;;1.00;0.80;;;19.00;99.90;;;;;;5060883;28;20060;-69
2023/08/18 07:55:13;;;;;;;0.20;0.20;;;18.90;99.90;;;;;;5032426;28;20275;-68
2023/08/18 07:57:39;;;;;;;1.25;0.57;;;18.80;99.90;;;;;;5030992;28;20034;-79
2023/08/18 08:00:17;;;;;;;0.93;0.93;;;18.80;99.90;;;;;;5025648;28;20037;-69
2023/08/18 08:02:46;;;;;;;1.48;0.95;;;18.70;99.90;;;;;;5017023;28;20910;-80
2023/08/18 08:05:13;;;;;;;0.75;0.60;;;18.70;99.90;;;;;;5041831;28;20036;-80
2023/08/18 08:07:40;;;;;;;2.03;1.88;;;18.80;99.90;;;;;;5017051;28;20109;-76
2023/08/18 08:10:06;;;;;;;3.17;1.33;;;18.70;99.90;;;;;;5037617;28;20040;-69
2023/08/18 08:12:34;;;;;;;1.10;1.02;;;18.70;99.90;;;;;;5028796;28;20028;-68
2023/08/18 08:15:00;;;;;;;0.77;0.77;;;18.70;99.90;;;;;;5022441;28;20033;-69
2023/08/18 08:17:29;;;;;;;1.58;1.48;;;18.70;99.90;;;;;;5021027;28;20360;-69
2023/08/18 08:19:56;;;;;;;1.42;1.23;;;18.80;99.90;;;;;;5028899;28;20140;-68
2023/08/18 08:22:22;;;;;;;0.55;0.55;;;18.80;99.90;;;;;;5033326;28;20029;-69
2023/08/18 08:24:50;;;;;;;2.30;1.23;;;18.80;99.90;;;;;;5020174;28;20034;-68
2023/08/18 08:27:16;;;;;;;2.05;1.08;;;18.90;99.90;;;;;;5028685;28;20092;-67
2023/08/18 08:29:42;;;;;;;0.60;0.60;;;19.00;99.90;;;;;;5025799;28;20025;-68
2023/08/18 08:32:07;;;;;;;0.73;0.73;;;19.10;99.90;;;;;;5024707;28;20030;-69
2023/08/18 08:34:33;;;;;;;0.63;0.63;;;19.20;99.90;;;;;;5033060;28;20375;-68
2023/08/18 08:36:59;;;;;;;0.53;0.53;;;19.40;99.90;;;;;;5034653;28;20029;-69
2023/08/18 08:39:24;;;;;;;1.13;1.13;;;19.40;99.90;;;;;;5033883;28;20440;-70
2023/08/18 08:41:50;;;;;;;0.50;0.50;;;19.40;99.90;;;;;;5027792;28;20025;-69
2023/08/18 08:44:16;;;;;;;2.43;2.03;;;19.40;99.90;;;;;;5026997;28;20448;-68
2023/08/18 08:46:43;;;;;;;0.83;0.83;;;19.50;99.90;;;;;;5016100;28;20037;-69
2023/08/18 08:49:10;;;;;;;1.05;1.05;;;19.50;99.90;;;;;;5032505;28;20024;-69
2023/08/18 08:51:40;;;;;;;1.55;0.57;;;19.50;99.90;;;;;;5031640;28;20021;-68
2023/08/18 08:54:07;;;;;;;0.93;0.68;;;19.50;99.90;;;;;;5030772;28;20108;-68
2023/08/18 08:56:35;;;;;;;1.08;0.90;;;19.50;99.90;;;;;;5031287;28;20047;-79
2023/08/18 08:59:01;;;;;;;1.00;0.88;;;19.50;99.90;;;;;;5020991;28;20392;-78
2023/08/18 09:01:27;;;;;;;1.88;1.38;;;19.60;99.90;;;;;;5043985;28;20033;-68
2023/08/18 09:03:55;;;;;;;1.23;1.13;;;19.70;99.90;;;;;;5040390;28;20348;-69
2023/08/18 09:06:21;;;;;;;4.75;1.45;;;19.80;99.90;;;;;;5031237;28;20028;-68
2023/08/18 09:08:47;;;;;;;2.00;1.40;;;19.90;99.90;;;;;;5037991;28;20026;-69
2023/08/18 09:11:12;;;;;;;0.80;0.80;;;19.90;99.90;;;;;;5029431;28;20025;-69
2023/08/18 09:13:39;;;;;;;0.63;0.63;;;20.10;99.90;;;;;;5039687;28;20049;-72
2023/08/18 09:16:06;;;;;;;3.75;0.73;;;20.10;99.90;;;;;;5029554;28;20109;-69
2023/08/18 09:18:33;;;;;;;1.67;1.58;;;20.20;99.90;;;;;;5038154;28;20042;-69
2023/08/18 09:21:06;;;;;;;3.60;1.38;;;20.20;99.90;;;;;;5031684;28;20034;-79
2023/08/18 09:23:32;;;;;;;0.95;0.95;;;20.20;99.90;;;;;;5023935;28;20026;-69
2023/08/18 09:25:58;;;;;;;1.65;1.05;;;20.20;99.90;;;;;;5038961;28;20022;-69
2023/08/18 09:28:26;;;;;;;0.47;0.47;;;20.30;99.90;;;;;;5033506;28;20033;-69
2023/08/18 09:30:52;;;;;;;1.45;1.38;;;20.30;99.90;;;;;;5049871;28;20287;-69
2023/08/18 09:33:21;;;;;;;4.30;0.90;;;20.40;99.90;;;;;;5036840;28;20387;-69
2023/08/18 09:35:57;;;;;;;0.47;0.47;;;20.50;99.90;;;;;;5037172;28;20033;-69
2023/08/18 09:38:25;;;;;;;1.33;1.00;;;20.70;99.90;;;;;;5031556;28;20037;-69
2023/08/18 09:40:57;;;;;;;1.27;1.27;;;20.80;99.90;;;;;;5035381;28;20044;-69
2023/08/18 09:43:25;;;;;;;2.50;1.55;;;20.90;99.90;;;;;;5025056;28;20381;-69
2023/08/18 09:45:53;;;;;;;3.78;2.15;;;20.90;99.90;;;;;;5039094;28;20091;-69
2023/08/18 09:48:21;;;;;;;1.17;0.82;;;21.00;99.90;;;;;;5037513;28;20033;-70
2023/08/18 09:50:49;;;;;;;1.00;1.00;;;21.00;99.90;;;;;;5031792;28;20032;-69
2023/08/18 09:53:17;;;;;;;0.73;0.73;;;21.10;99.90;;;;;;5037992;28;20087;-69
2023/08/18 09:55:44;;;;;;;0.55;0.55;;;21.10;99.90;;;;;;5019514;28;20029;-69
2023/08/18 09:58:22;;;;;;;0.20;0.20;;;21.10;99.90;;;;;;5025441;28;20079;-69
2023/08/18 10:00:56;;;;;;;1.48;1.08;;;21.20;99.90;;;;;;5034426;28;20030;-70
2023/08/18 10:03:25;;;;;;;2.20;1.35;;;21.20;99.90;;;;;;5034766;28;20021;-69
2023/08/18 10:05:53;;;;;;;0.55;0.55;;;21.20;99.90;;;;;;5032887;28;20022;-70
2023/08/18 10:08:21;;;;;;;0.60;0.60;;;21.20;99.90;;;;;;5035004;28;20080;-84
2023/08/18 10:10:47;;;;;;;35.60;2.15;;;21.30;99.90;;;;;;5033396;28;20033;-69
2023/08/18 10:13:14;;;;;;;0.73;0.73;;;21.40;99.90;;;;;;5025057;28;20076;-68
2023/08/18 10:15:40;;;;;;;;;;;21.30;99.90;;;;;;5034226;28;20025;-69
2023/08/18 10:18:09;;;;;;;0.90;0.90;;;21.30;99.90;;;;;;5027940;28;20293;-70
2023/08/18 10:20:35;;;;;;;1.10;1.00;;;21.30;99.90;;;;;;5031146;28;20096;-69
2023/08/18 10:23:02;;;;;;;1.70;1.27;;;21.40;99.90;;;;;;5036768;28;20021;-80
2023/08/18 10:25:29;;;;;;;1.45;1.08;;;21.60;99.90;;;;;;5028587;28;20440;-69
2023/08/18 10:27:56;;;;;;;;;;;21.60;99.90;;;;;;5036115;28;20036;-69
2023/08/18 10:30:27;;;;;;;1.90;1.80;;;21.60;99.90;;;;;;5036063;28;19909;-68
2023/08/18 10:32:57;;;;;;;1.65;1.58;;;21.60;99.90;;;;;;5030030;28;20029;-69
2023/08/18 10:35:24;;;;;;;1.00;1.00;;;21.60;99.90;;;;;;5024749;28;20392;-69
2023/08/18 10:37:56;;;;;;;0.80;0.80;;;21.60;99.90;;;;;;5033496;28;20056;-69
2023/08/18 10:40:28;;;;;;;4.97;1.95;;;21.60;99.90;;;;;;5025468;28;20036;-69
2023/08/18 10:42:58;;;;;;;1.50;1.40;;;21.60;99.90;;;;;;5026895;28;20029;-69
2023/08/18 10:45:28;;;;;;;0.95;0.95;;;21.80;99.90;;;;;;5029032;28;20046;-73
2023/08/18 10:48:01;;;;;;;1.00;1.00;;;21.90;99.90;;;;;;5035514;28;20060;-75
2023/08/18 10:50:29;;;;;;;0.73;0.73;;;21.90;99.90;;;;;;5023584;28;20425;-70
2023/08/18 10:52:55;;;;;;;1.98;1.45;;;22.00;99.90;;;;;;5041100;28;20048;-70
2023/08/18 10:55:25;;;;;;;0.30;0.30;;;22.00;99.90;;;;;;5028672;28;20322;-69
2023/08/18 10:57:51;;;;;;;2.00;1.90;;;22.10;99.90;;;;;;5030045;28;20030;-69
2023/08/18 11:00:18;;;;;;;0.73;0.73;;;22.20;99.90;;;;;;5020778;28;20038;-82
2023/08/18 11:02:44;;;;;;;;;;;22.30;99.90;;;;;;5025592;28;20102;-69
2023/08/18 11:05:10;;;;;;;1.80;1.67;;;22.10;99.90;;;;;;5025245;28;19920;-70
2023/08/18 11:07:36;;;;;;;1.17;1.17;;;22.10;99.90;;;;;;5026941;28;20026;-69
2023/08/18 11:10:16;;;;;;;1.90;1.80;;;22.30;99.90;;;;;;5028983;28;20058;-69
2023/08/18 11:12:43;;;;;;;1.00;1.00;;;22.40;99.90;;;;;;5032920;28;20118;-79
2023/08/18 11:15:09;;;;;;;3.38;1.13;;;22.40;99.90;;;;;;5047707;28;20028;-69
2023/08/18 11:17:35;;;;;;;0.98;0.98;;;22.50;99.90;;;;;;5034476;28;20441;-70
2023/08/18 11:20:00;;;;;;;1.00;1.00;;;22.60;99.90;;;;;;5027613;28;20037;-69
2023/08/18 11:22:28;;;;;;;1.20;1.20;;;22.80;99.90;;;;;;5033895;28;20030;-69
2023/08/18 11:24:54;;;;;;;0.77;0.77;;;22.80;99.90;;;;;;5048215;28;20029;-72
2023/08/18 11:27:20;;;;;;;1.23;0.98;;;22.70;99.90;;;;;;5032423;28;20029;-69
2023/08/18 11:29:46;;;;;;;0.93;0.90;;;22.80;99.90;;;;;;5031822;28;20043;-77
2023/08/18 11:32:12;;;;;;;1.38;1.38;;;22.80;99.90;;;;;;5036819;28;20293;-69
2023/08/18 11:34:38;;;;;;;2.13;1.92;;;22.70;99.90;;;;;;5034260;28;20478;-69
2023/08/18 11:37:10;;;;;;;1.05;0.93;;;22.70;99.90;;;;;;5033561;28;20079;-70
2023/08/18 11:39:36;;;;;;;2.95;1.50;;;22.80;99.90;;;;;;5034316;28;20347;-68
2023/08/18 11:42:02;;;;;;;2.42;2.22;;;22.90;99.90;;;;;;5035990;28;20025;-79
2023/08/18 11:44:28;;;;;;;1.35;1.05;;;22.90;99.90;;;;;;5054212;28;20091;-69
2023/08/18 11:46:56;;;;;;;1.17;1.08;;;22.70;99.90;;;;;;5031662;28;20034;-68
2023/08/18 11:49:21;;;;;;;5.47;1.50;;;22.70;99.90;;;;;;5041839;28;20025;-69
2023/08/18 11:52:04;;;;;;;0.40;0.40;;;22.70;99.90;;;;;;5039980;28;20025;-70
2023/08/18 11:54:33;;;;;;;2.30;2.05;;;22.90;99.90;;;;;;5031094;28;20057;-69
2023/08/18 11:57:03;;;;;;;1.08;1.08;;;22.90;99.90;;;;;;5041312;28;20029;-69
2023/08/18 11:59:29;;;;;;;1.48;1.02;;;23.00;99.90;;;;;;5041356;28;20025;-69
2023/08/18 12:01:57;;;;;;;1.00;1.00;;;23.10;99.90;;;;;;5039765;28;20098;-69
2023/08/18 12:04:24;;;;;;;2.60;1.00;;;23.10;99.90;;;;;;5036935;28;20052;-80
2023/08/18 12:06:50;;;;;;;1.98;1.75;;;23.30;99.90;;;;;;5040435;28;20033;-70
2023/08/18 12:09:16;;;;;;;1.85;1.17;;;23.30;99.90;;;;;;5036855;28;20420;-68
2023/08/18 12:11:42;;;;;;;2.00;1.50;;;23.30;99.90;;;;;;5036377;28;20104;-69
2023/08/18 12:14:07;;;;;;;1.80;1.13;;;23.20;99.90;;;;;;5041662;28;20038;-70
2023/08/18 12:16:34;;;;;;;0.83;0.83;;;23.10;99.90;;;;;;5034623;28;20297;-69
2023/08/18 12:19:01;;;;;;;1.67;1.58;;;23.10;99.90;;;;;;5040915;28;20046;-69
2023/08/18 12:21:27;;;;;;;0.82;0.82;;;23.10;99.90;;;;;;5032236;28;20037;-70
2023/08/18 12:23:53;;;;;;;0.70;0.70;;;23.20;99.90;;;;;;5032358;28;20033;-80
2023/08/18 12:26:18;;;;;;;2.03;1.03;;;23.20;99.90;;;;;;5034698;28;20645;-68
2023/08/18 12:28:44;;;;;;;1.23;1.13;;;23.20;99.90;;;;;;5040997;28;20029;-68
2023/08/18 12:31:10;;;;;;;1.55;1.08;;;23.30;99.90;;;;;;5024281;28;20403;-70
2023/08/18 12:33:36;;;;;;;0.90;0.90;;;23.40;99.90;;;;;;5018271;28;20041;-68
2023/08/18 12:36:02;;;;;;;1.60;1.50;;;23.50;99.90;;;;;;5025876;28;20045;-68
2023/08/18 12:38:28;;;;;;;0.63;0.63;;;23.70;99.90;;;;;;5031048;28;20360;-70
2023/08/18 12:40:54;;;;;;;1.00;1.00;;;23.70;99.90;;;;;;5032608;28;20034;-70
2023/08/18 12:43:20;;;;;;;0.70;0.70;;;23.70;99.90;;;;;;5035287;28;20029;-69
2023/08/18 12:45:45;;;;;;;0.77;0.77;;;23.80;99.90;;;;;;5024549;28;20573;-70